Time;durP1;ratioP1;P1;durP2;ratioP2;P2;SDS_P1;SDS_P2;PMS_P1;PMS_P2;Temp;Humidity;BMP_temperature;BMP_pressure;BME280_temperature;BME280_humidity;BME280_pressure;Samples;Min_cycle;Max_cycle;Signal;HPM_P1;HPM_P2
2022/08/17 00:04:18;;;;;;;;;;;20.80;99.90;;;20.01;67.69;95124.31;10437375;28;1899;-70
2022/08/17 00:09:21;;;;;;;;;;;20.80;99.90;;;20.00;67.88;95128.19;10440638;28;1995;-69
2022/08/17 00:14:24;;;;;;;;;;;20.80;99.90;;;19.90;68.43;95115.81;10441267;28;2078;-70
2022/08/17 00:19:27;;;;;;;;;;;20.80;99.90;;;19.86;68.84;95115.75;10420227;28;2036;-68
2022/08/17 00:24:30;;;;;;;;;;;20.70;99.90;;;19.87;69.19;95109.16;10417148;28;1916;-70
2022/08/17 00:29:33;;;;;;;;;;;20.70;99.90;;;19.87;69.38;95102.91;10422309;28;2101;-71
2022/08/17 00:34:36;;;;;;;;;;;20.60;99.90;;;19.71;70.08;95097.41;10442208;28;2022;-72
2022/08/17 00:39:40;;;;;;;;;;;20.60;99.90;;;19.61;69.58;95106.09;10422273;28;1980;-71
2022/08/17 00:44:43;;;;;;;;;;;20.50;99.90;;;19.60;69.87;95101.78;10416981;28;1929;-71
2022/08/17 00:49:47;;;;;;;;;;;20.40;99.90;;;19.69;68.91;95096.97;10402504;28;2282;-70
2022/08/17 00:54:51;;;;;;;;;;;20.40;99.90;;;19.67;68.39;95091.84;10403901;28;2045;-70
2022/08/17 00:59:53;;;;;;;;;;;20.40;99.90;;;19.69;68.13;95088.78;10434006;28;1890;-70
2022/08/17 01:05:05;;;;;;;;;;;20.50;99.90;;;19.65;68.38;95082.44;10432615;28;1977;-71
2022/08/17 01:10:10;;;;;;;;;;;20.50;99.90;;;19.58;69.05;95083.03;10443294;28;2019;-70
2022/08/17 01:15:48;;;;;;;;;;;20.50;99.90;;;19.61;69.09;95087.00;10417800;28;1932;-71
2022/08/17 01:21:10;;;;;;;;;;;20.40;99.90;;;19.49;69.67;95084.31;10427643;28;2049;-71
2022/08/17 01:26:34;;;;;;;;;;;20.40;99.90;;;19.41;70.02;95083.31;10434114;28;1958;-71
2022/08/17 01:31:53;;;;;;;;;;;20.30;99.90;;;19.46;69.78;95083.03;10421020;28;2087;-72
2022/08/17 01:36:57;;;;;;;;;;;20.20;99.90;;;19.37;69.57;95085.13;10415366;28;1953;-70
2022/08/17 01:42:19;;;;;;;;;;;20.20;99.90;;;19.35;69.88;95090.94;10430900;28;2174;-69
2022/08/17 01:47:31;;;;;;;;;;;20.10;99.90;;;19.20;70.96;95091.66;10418220;28;1946;-70
2022/08/17 01:52:38;;;;;;;;;;;20.10;99.90;;;19.31;71.23;95084.59;10435575;28;2058;-71
2022/08/17 01:57:44;;;;;;;;;;;20.00;99.90;;;19.28;71.73;95085.28;10414356;28;1875;-70
2022/08/17 02:02:47;;;;;;;;;;;20.00;99.90;;;19.19;72.44;95084.63;10423709;28;2036;-70
2022/08/17 02:07:51;;;;;;;;;;;20.10;99.90;;;19.06;72.84;95067.50;10414869;28;1951;-70
2022/08/17 02:13:02;;;;;;;;;;;20.00;99.90;;;18.84;74.09;95071.53;10442009;28;2037;-70
2022/08/17 02:18:06;;;;;;;;;;;19.80;99.90;;;18.86;74.43;95074.69;10405829;28;1973;-69
2022/08/17 02:23:09;;;;;;;;;;;19.70;99.90;;;18.92;73.99;95082.66;10429444;28;1980;-68
2022/08/17 02:28:12;;;;;;;;;;;19.70;99.90;;;18.95;73.54;95087.38;10432074;28;1884;-70
2022/08/17 02:33:15;;;;;;;;;;;19.80;99.90;;;18.86;73.50;95074.69;10424466;28;1864;-71
2022/08/17 02:38:22;;;;;;;;;;;19.70;99.90;;;18.78;73.58;95072.13;10443017;28;1867;-71
2022/08/17 02:43:26;;;;;;;;;;;19.70;99.90;;;18.81;73.15;95060.53;10441687;28;1937;-71
2022/08/17 02:48:29;;;;;;;;;;;19.60;99.90;;;18.78;72.76;95059.31;10432900;28;1815;-71
2022/08/17 02:53:33;;;;;;;;;;;19.60;99.90;;;18.78;72.73;95053.84;10435451;28;2053;-71
2022/08/17 02:58:38;;;;;;;;;;;19.60;99.90;;;18.75;72.66;95054.53;10444324;28;1875;-70
2022/08/17 03:03:42;;;;;;;;;;;19.60;99.90;;;18.81;72.61;95044.97;10444988;28;1942;-71
2022/08/17 03:08:45;;;;;;;;;;;19.60;99.90;;;18.56;73.80;95049.63;10441124;28;1973;-71
2022/08/17 03:13:49;;;;;;;;;;;19.50;99.90;;;18.51;74.12;95036.28;10443710;28;1839;-70
2022/08/17 03:18:54;;;;;;;;;;;19.40;99.90;;;18.47;74.84;95029.13;10440499;28;1945;-71
2022/08/17 03:23:57;;;;;;;;;;;19.40;99.90;;;18.53;74.97;95030.50;10443264;28;1971;-70
2022/08/17 03:29:00;;;;;;;;;;;19.30;99.90;;;18.54;74.71;95037.50;10431499;28;2013;-71
2022/08/17 03:34:03;;;;;;;;;;;19.30;99.90;;;18.50;75.06;95042.84;10440808;28;1886;-71
2022/08/17 03:39:06;;;;;;;;;;;19.30;99.90;;;18.39;75.63;95049.09;10418620;28;1866;-72
2022/08/17 03:44:10;;;;;;;;;;;19.20;99.90;;;18.59;74.63;95053.63;10419752;28;2072;-71
2022/08/17 03:59:56;;;;;;;;;;;19.20;99.90;;;18.45;74.98;95061.31;10436708;28;1948;-70
2022/08/17 04:04:59;;;;;;;;;;;19.40;99.90;;;18.34;75.60;95072.69;10415463;28;1956;-70
2022/08/17 04:10:03;;;;;;;;;;;19.20;99.90;;;18.49;74.97;95067.69;10445105;28;1832;-70
2022/08/17 04:15:07;;;;;;;;;;;19.20;99.90;;;18.52;74.22;95072.44;10436236;28;1934;-70
2022/08/17 04:20:11;;;;;;;;;;;19.30;99.90;;;18.53;74.03;95076.75;10427977;28;1914;-70
2022/08/17 04:25:14;;;;;;;;;;;19.40;99.90;;;18.50;73.91;95069.25;10434313;28;1962;-70
2022/08/17 04:30:17;;;;;;;;;;;19.40;99.90;;;18.70;73.20;95065.63;10422122;28;1983;-69
2022/08/17 04:35:20;;;;;;;;;;;19.20;99.90;;;18.94;71.47;95050.41;10411095;28;1916;-70
2022/08/17 04:45:44;;;;;;;;;;;19.60;99.90;;;19.27;69.89;95053.69;10418324;28;1955;-70
2022/08/17 04:50:58;;;;;;;;;;;19.90;99.90;;;19.40;69.48;95049.81;10420166;28;2254;-70
2022/08/17 04:56:01;;;;;;;;;;;20.00;99.90;;;19.58;68.75;95061.22;10434291;28;1815;-70
2022/08/17 05:01:05;;;;;;;;;;;20.10;99.90;;;19.68;68.27;95055.28;10413558;28;1978;-70
2022/08/17 05:06:09;;;;;;;;;;;20.20;99.90;;;19.81;67.71;95049.75;10416115;28;1899;-70
2022/08/17 05:11:11;;;;;;;;;;;20.40;99.90;;;19.98;67.25;95052.94;10437962;28;1898;-70
2022/08/17 05:16:14;;;;;;;;;;;20.60;99.90;;;20.31;66.13;95053.75;10426029;28;1968;-70
2022/08/17 05:21:18;;;;;;;;;;;20.80;99.90;;;20.89;63.04;95057.47;10419382;28;1808;-70
2022/08/17 05:26:22;;;;;;;;;;;;;;;21.25;61.17;95064.50;10434915;28;1906;-71
2022/08/17 05:31:30;;;;;;;;;;;;;;;21.35;60.63;95068.63;10414852;28;1825;-74
2022/08/17 05:36:33;;;;;;;;;;;21.80;99.90;;;21.37;60.53;95071.78;10438194;28;1875;-74
2022/08/17 05:41:46;;;;;;;;;;;22.30;99.90;;;21.77;59.12;95070.63;10438472;28;1826;-75
2022/08/17 05:46:49;;;;;;;;;;;22.10;99.90;;;21.80;59.31;95078.09;10422149;28;1918;-76
2022/08/17 05:51:52;;;;;;;;;;;22.30;99.90;;;22.25;57.18;95082.06;10440878;28;1944;-76
2022/08/17 05:56:55;;;;;;;;;;;22.40;99.90;;;22.48;54.94;95073.84;10433495;28;1855;-76
2022/08/17 06:01:58;;;;;;;;;;;22.90;99.90;;;22.77;54.24;95075.06;10444551;28;1931;-76
2022/08/17 06:07:01;;;;;;;;;;;23.00;99.90;;;23.07;53.43;95075.94;10440388;28;1910;-76
2022/08/17 06:12:04;;;;;;;;;;;23.30;99.90;;;22.92;53.73;95082.38;10442765;28;1808;-75
2022/08/17 06:17:15;;;;;;;;;;;23.20;99.90;;;22.86;53.25;95092.06;10430549;28;1855;-75
2022/08/17 06:22:18;;;;;;;;;;;23.20;99.90;;;23.27;52.18;95098.53;10426828;28;1920;-76
2022/08/17 06:27:22;;;;;;;;;;;23.50;99.90;;;23.66;50.00;95093.56;10424085;28;2009;-76
2022/08/17 06:32:25;;;;;;;;;;;23.70;99.90;;;23.30;50.30;95108.78;10430027;28;1950;-75
2022/08/17 06:37:28;;;;;;;;;;;23.80;99.90;;;23.50;50.90;95106.69;10425135;28;1872;-75
2022/08/17 06:42:30;;;;;;;;;;;24.00;99.90;;;22.66;52.90;95114.06;10445998;28;1858;-74
2022/08/17 06:47:55;;;;;;;;;;;23.70;99.90;;;23.35;51.33;95115.88;10438822;28;2004;-75
2022/08/17 06:52:58;;;;;;;;;;;23.50;99.90;;;22.80;54.93;95116.22;10433586;28;1831;-76
2022/08/17 06:58:01;;;;;;;;;;;23.70;99.90;;;22.94;56.02;95112.94;10442481;28;1796;-76
2022/08/17 07:03:19;;;;;;;;;;;23.30;99.90;;;23.85;52.94;95116.53;10429849;28;1857;-77
2022/08/17 07:08:22;;;;;;;;;;;23.80;99.90;;;23.65;50.98;95130.41;10445832;28;1546;-74
2022/08/17 07:13:31;;;;;;;;;;;24.10;99.90;;;24.13;50.05;95138.81;10423171;28;1902;-74
2022/08/17 07:18:35;;;;;;;;;;;;;;;24.35;48.61;95141.81;10417040;28;1839;-74
2022/08/17 07:23:39;;;;;;;;;;;24.70;99.90;;;25.25;46.08;95142.19;10420785;28;1965;-74
2022/08/17 07:28:43;;;;;;;;;;;;;;;25.51;45.45;95143.13;10425232;28;2342;-73
2022/08/17 07:33:46;;;;;;;;;;;25.90;99.90;;;25.74;46.23;95138.16;10421672;28;1943;-74
2022/08/17 07:38:49;;;;;;;;;;;25.80;99.90;;;25.70;45.75;95140.06;10434787;28;2196;-73
2022/08/17 07:43:52;;;;;;;;;;;26.00;99.90;;;26.02;45.71;95155.97;10431743;28;2252;-73
2022/08/17 07:48:56;;;;;;;;;;;26.20;99.90;;;26.18;45.35;95163.91;10437195;28;2211;-73
2022/08/17 07:53:59;;;;;;;;;;;26.20;99.90;;;26.56;43.53;95167.97;10430685;28;2284;-73
2022/08/17 07:59:15;;;;;;;;;;;26.50;99.90;;;26.12;44.79;95171.75;10422961;28;1839;-73
2022/08/17 08:04:18;;;;;;;;;;;26.40;99.90;;;26.11;46.46;95173.72;10419463;28;1918;-73
2022/08/17 08:09:41;;;;;;;;;;;26.60;99.90;;;26.03;46.20;95172.13;10440592;28;1828;-73
2022/08/17 08:14:44;;;;;;;;;;;26.50;99.90;;;26.50;44.84;95156.53;10425362;28;1795;-74
2022/08/17 08:19:47;;;;;;;;;;;26.60;99.90;;;26.85;42.82;95169.59;10424320;28;1805;-74
2022/08/17 08:24:50;;;;;;;;;;;27.00;99.90;;;27.11;41.89;95154.66;10416453;28;1983;-75
2022/08/17 08:29:54;;;;;;;;;;;27.10;99.90;;;26.87;42.28;95166.44;10445611;28;1858;-74
2022/08/17 08:34:56;;;;;;;;;;;27.20;99.90;;;26.62;42.15;95155.38;10433069;28;1868;-74
2022/08/17 08:40:07;;;;;;;;;;;27.30;99.90;;;26.86;41.71;95159.34;10436950;28;1870;-74
2022/08/17 08:45:09;;;;;;;;;;;27.30;99.90;;;27.58;39.70;95151.81;10435361;28;2052;-73
2022/08/17 08:50:12;;;;;;;;;;;27.70;99.90;;;27.58;39.77;95157.34;10430253;28;1867;-71
2022/08/17 08:55:36;;;;;;;;;;;27.90;99.90;;;27.25;40.73;95153.06;10440360;28;1890;-73
2022/08/17 09:00:39;;;;;;;;;;;27.80;99.90;;;27.32;40.42;95140.03;10422683;28;1993;-73
2022/08/17 09:05:42;;;;;;;;;;;27.90;99.90;;;27.81;38.69;95135.59;10421847;28;1962;-74
2022/08/17 09:10:45;;;;;;;;;;;28.00;99.90;;;27.95;38.21;95135.53;10441374;28;1946;-74
2022/08/17 09:15:48;;;;;;;;;;;28.30;99.90;;;27.57;39.07;95139.19;10418679;28;1878;-73
2022/08/17 09:20:51;;;;;;;;;;;28.30;99.90;;;27.87;38.55;95150.59;10425776;28;1954;-74
2022/08/17 09:25:54;;;;;;;;;;;28.40;99.90;;;27.88;38.49;95146.63;10439339;28;1914;-75
2022/08/17 09:31:01;;;;;;;;;;;28.50;99.90;;;28.07;38.71;95141.81;10431228;28;1848;-74
2022/08/17 09:36:04;;;;;;;;;;;28.50;99.90;;;28.48;37.55;95134.50;10445340;28;1812;-73
2022/08/17 09:41:08;;;;;;;;;;;28.70;96.70;;;28.66;36.41;95134.38;10446404;28;1925;-75
2022/08/17 09:46:11;;;;;;;;;;;29.10;97.50;;;28.76;36.10;95132.75;10445701;28;1916;-73
2022/08/17 09:51:13;;;;;;;;;;;29.20;96.60;;;28.51;36.94;95133.69;10437932;28;1831;-74
2022/08/17 09:56:17;;;;;;;;;;;29.20;97.40;;;28.85;35.64;95135.81;10424942;28;1795;-75
2022/08/17 10:01:20;;;;;;;;;;;29.30;97.80;;;28.69;35.90;95141.06;10448481;28;1984;-74
2022/08/17 10:06:23;;;;;;;;;;;;;;;28.91;35.12;95136.97;10435072;28;2000;-75
2022/08/17 10:12:14;;;;;;;;;;;;;;;29.22;34.67;95143.47;10427568;28;1912;-73
2022/08/17 10:16:54;;;;;;;;;;;;;;;29.31;34.72;95137.44;10443186;28;1875;-74
2022/08/17 10:27:37;;;;;;;;;;;;;;;28.95;35.33;95135.00;10404270;28;1978;-76
2022/08/17 10:32:41;;;;;;;;;;;;;;;29.63;33.89;95122.50;10437442;28;1871;-75
2022/08/17 10:37:45;;;;;;;;;;;30.10;96.80;;;29.32;34.05;95122.38;10440594;28;2023;-74
2022/08/17 10:42:48;;;;;;;;;;;29.90;93.40;;;29.44;33.74;95127.41;10413642;28;1875;-75
2022/08/17 10:47:52;;;;;;;;;;;30.00;93.80;;;29.72;33.01;95126.38;10448838;28;1915;-75
2022/08/17 10:52:58;;;;;;;;;;;30.10;93.40;;;29.79;33.48;95142.91;10423898;28;1855;-74
2022/08/17 10:58:02;;;;;;;;;;;30.10;97.30;;;30.13;34.06;95136.59;10448675;28;1890;-74
2022/08/17 11:03:05;;;;;;;;;;;;;;;30.73;32.58;95136.94;10421652;28;1927;-75
2022/08/17 11:08:10;;;;;;;;;;;;;;;31.04;31.10;95140.44;10418562;28;1991;-74
2022/08/17 11:13:14;;;;;;;;;;;;;;;31.18;31.31;95134.66;10446628;28;1946;-74
2022/08/17 11:18:18;;;;;;;;;;;;;;;31.06;31.41;95141.59;10423706;28;1803;-74
2022/08/17 11:23:22;;;;;;;;;;;;;;;31.50;30.45;95142.47;10424637;28;1878;-74
2022/08/17 11:28:26;;;;;;;;;;;;;;;30.42;31.59;95137.00;10422521;28;1898;-74
2022/08/17 11:33:30;;;;;;;;;;;;;;;30.23;32.64;95134.88;10435203;28;1831;-74
2022/08/17 11:38:33;;;;;;;;;;;;;;;30.83;31.19;95125.69;10416326;28;1951;-74
2022/08/17 11:43:44;;;;;;;;;;;;;;;30.73;30.85;95123.09;10425817;28;1974;-74
2022/08/17 11:54:09;;;;;;;;;;;;;;;30.71;31.44;95123.50;10416832;28;1822;-74
2022/08/17 11:59:32;;;;;;;;;;;;;;;30.67;30.79;95133.88;10425196;28;1909;-74
2022/08/17 12:04:36;;;;;;;;;;;;;;;30.88;30.55;95138.31;10443220;28;1890;-73
2022/08/17 12:09:40;;;;;;;;;;;;;;;30.82;29.91;95137.22;10422071;28;1987;-74
2022/08/17 12:14:44;;;;;;;;;;;31.50;86.30;;;30.76;29.47;95141.69;10437531;28;1842;-73
2022/08/17 12:20:06;;;;;;;;;;;30.90;88.30;;;31.24;29.70;95140.53;10435039;28;1875;-72
2022/08/17 12:25:09;;;;;;;;;;;31.50;82.30;;;31.13;28.90;95137.91;10415452;28;1914;-73
2022/08/17 12:30:12;;;;;;;;;;;31.80;80.60;;;30.51;29.75;95128.16;10433462;28;1858;-73
2022/08/17 12:35:16;;;;;;;;;;;;;;;30.87;29.06;95131.22;10438306;28;2078;-74
2022/08/17 12:40:21;;;;;;;;;;;;;;;31.18;29.82;95118.78;10424218;28;1839;-74
2022/08/17 12:45:24;;;;;;;;;;;32.10;99.90;;;30.93;28.56;95119.22;10443016;28;1918;-74
2022/08/17 12:50:28;;;;;;;;;;;31.50;99.90;;;31.01;28.60;95103.22;10418639;28;1847;-74
2022/08/17 12:55:31;;;;;;;;;;;31.50;94.50;;;30.95;29.19;95105.69;10416763;28;1836;-73
2022/08/17 13:00:36;;;;;;;;;;;31.70;99.90;;;31.55;28.02;95097.50;10441000;28;1779;-73
2022/08/17 13:05:39;;;;;;;;;;;32.00;99.90;;;31.55;27.87;95091.94;10421451;28;1890;-72
2022/08/17 13:10:42;;;;;;;;;;;32.50;99.90;;;31.73;26.87;95103.50;10430291;28;1877;-72
2022/08/17 13:15:45;;;;;;;;;;;33.30;99.90;;;31.72;25.62;95093.59;10420385;28;1856;-73
2022/08/17 13:20:50;;;;;;;;;;;32.20;89.20;;;31.56;25.32;95098.31;10419039;28;1709;-73
2022/08/17 13:25:53;;;;;;;;;;;32.00;85.20;;;31.83;25.88;95093.44;10421832;28;1899;-74
2022/08/17 13:30:56;;;;;;;;;;;32.20;84.70;;;31.90;26.38;95073.81;10428950;28;1832;-73
2022/08/17 13:35:59;;;;;;;;;;;32.30;84.50;;;32.02;25.77;95091.84;10421229;28;1878;-74
2022/08/17 13:41:04;;;;;;;;;;;32.20;87.10;;;31.81;24.83;95083.94;10439126;28;1938;-73
2022/08/17 13:46:07;;;;;;;;;;;32.30;86.10;;;31.84;25.67;95080.31;10420125;28;1914;-72
2022/08/17 13:51:10;;;;;;;;;;;32.30;87.40;;;32.42;24.39;95091.81;10418930;28;1891;-72
2022/08/17 13:56:13;;;;;;;;;;;32.50;87.30;;;32.35;25.78;95083.63;10443996;28;1906;-74
2022/08/17 14:01:36;;;;;;;;;;;32.70;85.30;;;32.70;25.87;95091.16;10428052;28;1814;-72
2022/08/17 14:06:39;;;;;;;;;;;;;;;33.06;25.78;95076.38;10440314;28;1977;-75
2022/08/17 14:11:55;;;;;;;;;;;;;;;33.43;24.32;95063.91;10420882;28;2043;-72
2022/08/17 14:16:59;;;;;;;;;;;;;;;33.19;24.60;95054.16;10439589;28;1735;-75
2022/08/17 14:22:03;;;;;;;;;;;;;;;33.32;23.78;95041.06;10443531;28;1802;-73
2022/08/17 14:27:07;;;;;;;;;;;;;;;33.17;23.84;95039.91;10438891;28;1914;-73
2022/08/17 14:32:11;;;;;;;;;;;;;;;32.84;24.68;95034.34;10430646;28;2034;-74
2022/08/17 14:37:14;;;;;;;;;;;;;;;33.08;23.76;95009.88;10446144;28;1898;-73
2022/08/17 14:42:19;;;;;;;;;;;;;;;32.81;24.05;95005.38;10429549;28;1897;-72
2022/08/17 14:47:23;;;;;;;;;;;;;;;32.60;23.75;95008.72;10440111;28;1960;-73
2022/08/17 14:52:27;;;;;;;;;;;;;;;32.42;23.68;95008.34;10445266;28;1855;-74
2022/08/17 14:57:30;;;;;;;;;;;33.20;94.90;;;32.38;22.70;95005.66;10446439;28;1859;-73
2022/08/17 15:02:36;;;;;;;;;;;33.10;91.90;;;32.16;22.42;95007.34;10416083;28;1880;-74
2022/08/17 15:07:39;;;;;;;;;;;32.80;84.80;;;32.08;22.68;94994.84;10454598;28;2082;-74
2022/08/17 15:12:42;;;;;;;;;;;32.70;87.20;;;31.80;22.93;95008.13;10443468;28;1977;-73
2022/08/17 15:17:46;;;;;;;;;;;32.70;86.20;;;32.21;23.02;95015.97;10444691;28;1839;-74
2022/08/17 15:22:49;;;;;;;;;;;34.00;97.90;;;31.54;27.13;95011.84;10447844;28;1899;-73
2022/08/17 15:27:52;;;;;;;;;;;32.60;97.30;;;31.53;27.53;95016.59;10447098;28;1968;-73
2022/08/17 15:32:56;;;;;;;;;;;32.30;98.50;;;31.52;27.52;95033.72;10419072;28;1901;-72
2022/08/17 15:37:59;;;;;;;;;;;32.20;99.10;;;31.58;24.92;95037.56;10425464;28;1883;-72
2022/08/17 15:43:10;;;;;;;;;;;32.00;97.90;;;32.20;23.96;95042.22;10429172;28;1879;-73
2022/08/17 15:48:14;;;;;;;;;;;32.40;94.70;;;32.78;23.71;95025.75;10439413;28;1917;-72
2022/08/17 15:53:17;;;;;;;;;;;32.80;94.40;;;32.50;24.14;95021.66;10429415;28;1904;-72
2022/08/17 15:58:20;;;;;;;;;;;33.00;93.80;;;32.10;24.87;95032.09;10421550;28;1865;-73
2022/08/17 16:03:34;;;;;;;;;;;32.90;93.50;;;31.68;27.32;95029.00;10431446;28;1878;-72
2022/08/17 16:08:58;;;;;;;;;;;32.00;99.90;;;30.97;29.18;95030.31;10425714;28;1922;-73
2022/08/17 16:14:01;;;;;;;;;;;31.90;98.90;;;30.61;29.60;95035.69;10444723;28;1921;-72
2022/08/17 16:19:03;;;;;;;;;;;31.50;99.90;;;30.51;29.91;95034.63;10439578;28;1851;-72
2022/08/17 16:24:06;;;;;;;;;;;31.30;99.90;;;30.24;30.42;95028.34;10413704;28;1898;-72
2022/08/17 16:29:16;;;;;;;;;;;31.10;99.90;;;29.97;30.33;95025.53;10409710;28;2197;-73
2022/08/17 16:34:19;;;;;;;;;;;30.80;99.90;;;30.25;30.17;95029.91;10418273;28;2300;-73
2022/08/17 16:39:22;;;;;;;;;;;30.80;98.30;;;30.10;30.48;95021.03;10436325;28;2566;-73
2022/08/17 16:44:27;;;;;;;;;;;30.70;97.80;;;30.25;30.47;95007.72;10420215;28;1815;-74
2022/08/17 16:49:30;;;;;;;;;;;31.80;99.90;;;30.11;30.77;95008.72;10423405;28;1914;-71
2022/08/17 16:54:42;;;;;;;;;;;30.80;96.00;;;29.93;30.99;95008.16;10421057;28;1844;-72
2022/08/17 16:59:49;;;;;;;;;;;30.60;93.80;;;29.65;30.91;95004.59;10415316;28;1835;-73
2022/08/17 17:04:51;;;;;;;;;;;30.40;93.90;;;29.43;31.57;95001.25;10415786;28;1848;-73
2022/08/17 17:09:54;;;;;;;;;;;30.30;94.90;;;29.13;32.26;94990.94;10441334;28;1899;-73
2022/08/17 17:14:59;;;;;;;;;;;30.00;75.40;;;28.96;33.01;94983.63;10444292;28;1793;-79
2022/08/17 17:20:03;;;;;;;;;;;29.90;75.70;;;28.86;33.38;94985.25;10432499;28;1965;-74
2022/08/17 17:43:38;;;;;;;;;;;29.10;78.20;;;28.41;34.98;94968.69;10634409;22;3827;-72
2022/08/17 17:49:01;;;;;;;;;;;29.10;78.70;;;28.31;35.35;94983.38;10381685;28;2266;-72
2022/08/17 17:54:11;;;;;;;;;;;29.00;79.00;;;28.14;35.71;94971.25;10397992;28;1981;-70
2022/08/17 17:59:34;;;;;;;;;;;28.90;78.90;;;27.98;36.26;94979.25;10400004;28;1919;-70
2022/08/17 18:05:03;;;;;;;;;;;28.80;78.90;;;27.52;37.63;94971.22;10404471;28;1929;-71
2022/08/17 18:10:27;;;;;;;;;;;28.60;80.20;;;27.20;38.49;94953.63;10413777;28;1978;-73
2022/08/17 18:15:53;;;;;;;;;;;28.30;81.30;;;27.18;38.18;94966.25;10407498;28;1958;-72
2022/08/17 18:21:18;;;;;;;;;;;28.10;81.60;;;27.04;38.68;94935.91;10395916;28;1980;-76
2022/08/17 18:26:41;;;;;;;;;;;28.00;82.00;;;26.82;39.21;94949.00;10403466;28;2106;-73
2022/08/17 18:32:07;;;;;;;;;;;27.80;82.00;;;26.77;38.86;94952.94;10404641;28;1973;-75
2022/08/17 18:37:31;;;;;;;;;;;27.70;81.90;;;26.71;38.92;94949.03;10399031;28;2086;-76
2022/08/17 18:42:54;;;;;;;;;;;27.60;81.80;;;26.64;38.38;94954.56;10397893;28;2180;-74
2022/08/17 18:48:17;;;;;;;;;;;27.50;81.50;;;26.34;39.43;94969.53;10390173;28;2137;-75
2022/08/17 18:53:41;;;;;;;;;;;27.30;82.20;;;26.40;39.25;94962.47;10409273;28;1972;-73
2022/08/17 18:59:04;;;;;;;;;;;27.30;82.50;;;26.20;39.66;94960.47;10400680;28;1895;-74
2022/08/17 19:04:27;;;;;;;;;;;27.10;82.80;;;25.92;40.68;94962.03;10405353;28;1879;-75
2022/08/17 19:10:01;;;;;;;;;;;26.90;82.70;;;25.97;40.20;94950.63;10396312;28;1887;-73
2022/08/17 19:15:24;;;;;;;;;;;26.80;82.80;;;25.80;40.78;94935.66;10405091;28;1907;-74
2022/08/17 19:20:48;;;;;;;;;;;26.70;83.00;;;25.61;41.17;94927.75;10399049;28;1907;-76
2022/08/17 19:26:11;;;;;;;;;;;26.60;83.70;;;25.46;41.64;94950.91;10397307;28;2001;-74
2022/08/17 19:31:55;;;;;;;;;;;26.40;84.10;;;25.26;42.39;94954.00;10410108;28;1844;-73
2022/08/17 19:37:19;;;;;;;;;;;26.20;84.60;;;25.50;41.00;94966.25;10403818;28;1931;-73
2022/08/17 19:42:46;;;;;;;;;;;26.10;84.30;;;25.36;41.94;94979.16;10394825;28;2092;-72
2022/08/17 19:51:58;;;;;;;;;;;26.20;84.70;;;25.40;42.20;94982.72;10510591;27;10969;-74
2022/08/17 19:57:01;;;;;;;;;;;26.00;85.60;;;25.47;42.27;94980.00;10505453;27;1987;-74
2022/08/17 20:02:04;;;;;;;;;;;26.10;85.70;;;25.26;43.02;94978.75;10501572;28;2019;-75
2022/08/17 20:07:07;;;;;;;;;;;26.10;85.90;;;25.21;43.15;94987.38;10503465;28;1979;-74
2022/08/17 20:12:10;;;;;;;;;;;26.00;86.20;;;25.26;43.43;94989.75;10507939;28;1841;-73
2022/08/17 20:17:13;;;;;;;;;;;26.00;86.50;;;25.17;43.87;94986.56;10503271;28;1865;-74
2022/08/17 20:22:15;;;;;;;;;;;26.00;86.90;;;25.18;43.95;94992.84;10502677;28;2014;-74
2022/08/17 20:27:20;;;;;;;;;;;25.80;86.90;;;25.09;44.36;94995.19;10499973;28;1907;-75
2022/08/17 20:32:42;;;;;;;;;;;25.80;87.30;;;25.08;44.52;94988.88;10496447;28;1884;-73
2022/08/17 20:37:45;;;;;;;;;;;25.70;87.50;;;25.06;44.60;94980.22;10500109;28;1891;-73
2022/08/17 20:42:48;;;;;;;;;;;25.80;87.50;;;24.93;45.08;94981.69;10501009;28;1935;-73
2022/08/17 20:47:57;;;;;;;;;;;25.70;87.90;;;24.91;45.29;94962.06;10516061;28;1923;-75
2022/08/17 20:53:20;;;;;;;;;;;25.60;88.10;;;24.79;45.55;94943.94;10503234;28;1877;-73
2022/08/17 20:58:23;;;;;;;;;;;25.60;88.40;;;24.76;45.94;94942.75;10503110;28;1892;-74
2022/08/17 21:03:32;;;;;;;;;;;25.50;88.90;;;24.69;46.20;94945.47;10469921;28;2176;-73
2022/08/17 21:08:53;;;;;;;;;;;25.40;89.30;;;24.62;46.71;94950.91;10476672;28;1960;-74
2022/08/17 21:13:56;;;;;;;;;;;25.30;89.40;;;24.62;46.98;94950.09;10477173;28;2000;-74
2022/08/17 21:18:58;;;;;;;;;;;25.30;89.60;;;24.51;46.92;94950.84;10476316;28;1927;-75
2022/08/17 21:24:01;;;;;;;;;;;25.30;89.70;;;24.52;47.29;94946.13;10473413;28;1833;-75
2022/08/17 21:29:04;;;;;;;;;;;25.20;89.80;;;24.56;46.82;94940.66;10475215;28;1894;-75
2022/08/17 21:34:27;;;;;;;;;;;25.20;89.70;;;24.50;46.88;94934.75;10470578;28;1957;-75
2022/08/17 21:39:29;;;;;;;;;;;25.10;89.90;;;24.48;47.25;94932.38;10470054;28;1892;-74
2022/08/17 21:44:35;;;;;;;;;;;25.20;90.00;;;24.44;47.25;94941.78;10466944;28;1955;-75
2022/08/17 21:49:38;;;;;;;;;;;25.10;90.10;;;24.39;47.49;94939.38;10473767;28;1894;-75
2022/08/17 21:54:42;;;;;;;;;;;25.10;90.30;;;24.42;46.74;94938.59;10470279;28;1865;-76
2022/08/17 21:59:45;;;;;;;;;;;25.10;90.00;;;24.50;46.25;94951.25;10472411;28;1935;-74
2022/08/17 22:04:48;;;;;;;;;;;25.10;89.40;;;24.43;46.40;94943.75;10474214;28;1836;-74
2022/08/17 22:09:51;;;;;;;;;;;25.10;89.40;;;24.36;46.00;94951.91;10471053;28;1918;-75
2022/08/17 22:14:54;;;;;;;;;;;25.10;89.40;;;24.33;46.02;94976.59;10472134;28;1859;-76
2022/08/17 22:19:56;;;;;;;;;;;25.00;89.40;;;23.85;57.09;95039.69;10473026;28;1884;-76
2022/08/17 22:25:00;;;;;;;;;;;25.00;95.90;;;23.09;63.63;95070.88;10471941;28;1955;-75
2022/08/17 22:30:03;;;;;;;;;;;24.40;99.40;;;21.63;75.96;95089.47;10469825;28;1919;-74
2022/08/17 22:35:09;;;;;;;;;;;23.00;99.90;;;19.77;98.95;95097.94;10470350;28;1967;-68
2022/08/17 22:40:12;;;;;;;;;;;21.50;99.90;;;19.64;100.00;95119.00;10470883;28;1943;-68
2022/08/17 22:45:15;;;;;;;;;;;20.20;99.90;;;19.84;100.00;95172.56;10471210;28;1908;-74
2022/08/17 22:50:18;;;;;;;;;;;20.30;99.90;;;19.81;100.00;95192.34;10467409;28;1914;-74
2022/08/17 23:00:41;;;;;;;;;;;20.20;99.90;;;19.36;100.00;95211.63;10499988;28;1833;-74
2022/08/17 23:05:43;;;;;;;;;;;20.10;99.90;;;19.05;100.00;95212.22;10467153;28;1904;-74
2022/08/17 23:10:46;;;;;;;;;;;20.10;99.90;;;18.44;100.00;95221.06;10468129;28;1914;-76
2022/08/17 23:15:49;;;;;;;;;;;19.40;99.90;;;18.22;100.00;95214.13;10494470;28;1881;-76
2022/08/17 23:20:52;;;;;;;;;;;19.00;99.90;;;18.06;100.00;95205.78;10470555;28;1935;-75
2022/08/17 23:25:54;;;;;;;;;;;18.70;99.90;;;18.05;100.00;95208.84;10468421;28;2010;-75
2022/08/17 23:30:57;;;;;;;;;;;18.60;99.90;;;18.18;100.00;95215.91;10463985;28;1965;-75
2022/08/17 23:36:00;;;;;;;;;;;18.60;99.90;;;18.23;100.00;95220.34;10470819;28;1952;-74
2022/08/17 23:41:03;;;;;;;;;;;18.80;99.90;;;18.31;100.00;95228.41;10471405;28;1801;-73
2022/08/17 23:46:06;;;;;;;;;;;19.00;99.90;;;18.39;100.00;95239.56;10467075;28;1924;-75
2022/08/17 23:51:09;;;;;;;;;;;19.00;99.90;;;18.47;100.00;95252.28;10468232;28;1955;-74
2022/08/17 23:56:12;;;;;;;;;;;19.00;99.90;;;18.51;100.00;95253.19;10462188;28;1915;-74
